Time;durP1;ratioP1;P1;durP2;ratioP2;P2;SDS_P1;SDS_P2;PMS_P1;PMS_P2;Temp;Humidity;BMP_temperature;BMP_pressure;BME280_temperature;BME280_humidity;BME280_pressure;Samples;Min_cycle;Max_cycle;Signal;HPM_P1;HPM_P2
2021/05/18 00:00:00;;;;;;;11.07;6.37;;;10.80;99.90;;;;;;5078075;28;20272;-50
2021/05/18 00:02:27;;;;;;;13.27;7.60;;;10.70;99.90;;;;;;5083020;28;20208;-49
2021/05/18 00:04:54;;;;;;;12.17;6.93;;;10.60;99.90;;;;;;5080068;28;20278;-48
2021/05/18 00:07:22;;;;;;;16.53;7.50;;;10.60;99.90;;;;;;5079453;28;20255;-51
2021/05/18 00:12:34;;;;;;;17.23;7.93;;;10.40;99.90;;;;;;5071883;28;20226;-53
2021/05/18 00:15:01;;;;;;;11.23;6.57;;;10.40;99.90;;;;;;5071170;28;20589;-47
2021/05/18 00:17:28;;;;;;;12.93;7.07;;;10.30;99.90;;;;;;5083080;28;20319;-52
2021/05/18 00:19:55;;;;;;;13.87;7.23;;;10.30;99.90;;;;;;5080380;28;20251;-48
2021/05/18 00:22:21;;;;;;;13.23;8.00;;;10.20;99.90;;;;;;5081393;28;20869;-47
2021/05/18 00:24:48;;;;;;;15.23;7.83;;;10.20;99.90;;;;;;5076105;28;20222;-48
2021/05/18 00:27:14;;;;;;;13.60;8.37;;;10.20;99.90;;;;;;5080105;28;20189;-49
2021/05/18 00:29:40;;;;;;;12.73;7.33;;;10.20;99.90;;;;;;5071075;28;20617;-47
2021/05/18 00:32:06;;;;;;;14.27;8.73;;;10.10;99.90;;;;;;5066698;28;20190;-48
2021/05/18 00:34:32;;;;;;;14.53;9.10;;;10.10;99.90;;;;;;5076560;28;20236;-46
2021/05/18 00:36:59;;;;;;;13.53;8.57;;;10.00;99.90;;;;;;5077969;28;20693;-54
2021/05/18 00:39:25;;;;;;;16.27;9.87;;;10.00;99.90;;;;;;5080993;28;20561;-48
2021/05/18 00:41:52;;;;;;;15.37;9.60;;;10.00;99.90;;;;;;5075362;28;20580;-53
2021/05/18 00:44:18;;;;;;;19.03;8.97;;;10.00;99.90;;;;;;5065724;28;20938;-47
2021/05/18 00:46:44;;;;;;;14.87;9.27;;;9.90;99.90;;;;;;5072998;28;20270;-52
2021/05/18 00:49:10;;;;;;;12.40;9.30;;;9.90;99.90;;;;;;5078182;28;20265;-50
2021/05/18 00:51:45;;;;;;;15.37;9.63;;;9.90;99.90;;;;;;5082071;28;20254;-54
2021/05/18 00:54:20;;;;;;;15.77;9.80;;;9.90;99.90;;;;;;5078785;28;21075;-50
2021/05/18 00:59:33;;;;;;;12.80;8.87;;;9.90;99.90;;;;;;5067428;28;20213;-51
2021/05/18 01:01:59;;;;;;;17.33;11.07;;;9.90;99.90;;;;;;5067890;28;20205;-54
2021/05/18 01:04:25;;;;;;;19.27;10.80;;;9.80;99.90;;;;;;5081753;28;20618;-46
2021/05/18 01:06:51;;;;;;;14.83;10.90;;;9.80;99.90;;;;;;5079936;28;20220;-48
2021/05/18 01:09:18;;;;;;;15.07;10.87;;;9.80;99.90;;;;;;5070262;28;20652;-52
2021/05/18 01:11:48;;;;;;;17.40;11.63;;;9.80;99.90;;;;;;5073321;28;20756;-47
2021/05/18 01:14:18;;;;;;;28.73;11.97;;;9.80;99.90;;;;;;5068722;28;20221;-49
2021/05/18 01:16:47;;;;;;;21.87;11.83;;;9.80;99.90;;;;;;5078165;28;20206;-48
2021/05/18 01:19:15;;;;;;;19.47;11.23;;;9.80;99.90;;;;;;5074709;28;20189;-49
2021/05/18 01:21:42;;;;;;;15.90;12.33;;;9.80;99.90;;;;;;5084071;28;20675;-50
2021/05/18 01:24:09;;;;;;;19.67;12.13;;;9.80;99.90;;;;;;5083117;28;20915;-50
2021/05/18 01:26:37;;;;;;;16.80;12.10;;;9.80;99.90;;;;;;5084014;28;20243;-49
2021/05/18 01:29:08;;;;;;;22.60;11.93;;;9.80;99.90;;;;;;5064152;28;24599;-49
2021/05/18 01:31:39;;;;;;;17.13;12.87;;;9.80;99.90;;;;;;5084507;28;20229;-52
2021/05/18 01:34:05;;;;;;;20.50;13.27;;;9.80;99.90;;;;;;5076058;28;20535;-48
2021/05/18 01:36:39;;;;;;;19.27;12.97;;;9.80;99.90;;;;;;5082813;28;20201;-47
2021/05/18 01:39:23;;;;;;;19.73;12.27;;;9.80;99.90;;;;;;5082182;28;20186;-48
2021/05/18 01:44:37;;;;;;;18.53;12.70;;;9.80;99.90;;;;;;5073338;28;20232;-47
2021/05/18 01:47:04;;;;;;;15.57;11.73;;;9.80;99.90;;;;;;5071041;28;20218;-51
2021/05/18 01:49:37;;;;;;;16.87;13.30;;;9.80;99.90;;;;;;5068469;28;20216;-50
2021/05/18 01:52:09;;;;;;;15.20;11.47;;;9.70;99.90;;;;;;5081977;28;20607;-51
2021/05/18 01:54:37;;;;;;;18.37;11.93;;;9.70;99.90;;;;;;5084525;28;20222;-46
2021/05/18 01:57:18;;;;;;;18.53;12.17;;;9.80;99.90;;;;;;5081207;28;20206;-49
2021/05/18 01:59:51;;;;;;;17.63;11.03;;;9.70;99.90;;;;;;5066023;28;20708;-47
2021/05/18 02:02:23;;;;;;;15.43;11.10;;;9.80;99.90;;;;;;5081865;28;20208;-48
2021/05/18 02:05:00;;;;;;;16.77;11.23;;;9.80;99.90;;;;;;5074454;28;20309;-48
2021/05/18 02:07:41;;;;;;;20.80;12.20;;;9.90;99.90;;;;;;5078920;28;20186;-52
2021/05/18 02:10:12;;;;;;;18.50;10.83;;;9.90;99.90;;;;;;5081022;28;20186;-48
2021/05/18 02:12:43;;;;;;;19.97;10.97;;;9.90;99.90;;;;;;5114865;27;20216;-48
2021/05/18 02:15:22;;;;;;;14.30;11.37;;;9.90;99.90;;;;;;5078152;28;20248;-50
2021/05/18 02:18:12;;;;;;;16.07;9.73;;;9.90;99.90;;;;;;5071442;28;20630;-49
2021/05/18 02:20:41;;;;;;;14.53;10.07;;;9.90;99.90;;;;;;5078921;28;20201;-50
2021/05/18 02:26:01;;;;;;;13.93;8.93;;;9.80;99.90;;;;;;5081036;28;20358;-51
2021/05/18 02:28:39;;;;;;;12.00;9.17;;;9.80;99.90;;;;;;5082488;28;20247;-52
2021/05/18 02:31:06;;;;;;;13.77;8.13;;;9.80;99.90;;;;;;5067530;28;20226;-48
2021/05/18 02:33:39;;;;;;;10.97;7.53;;;9.80;99.90;;;;;;5083427;28;20209;-51
2021/05/18 02:36:08;;;;;;;12.10;7.90;;;9.80;99.90;;;;;;5077722;28;20258;-46
2021/05/18 02:38:36;;;;;;;12.17;7.47;;;9.80;99.90;;;;;;5083172;28;20204;-56
2021/05/18 02:41:11;;;;;;;13.37;6.73;;;9.80;99.90;;;;;;5082032;28;20196;-49
2021/05/18 02:43:42;;;;;;;10.07;6.77;;;9.80;99.90;;;;;;5083075;28;20200;-51
2021/05/18 02:46:18;;;;;;;11.03;7.00;;;9.80;99.90;;;;;;5076718;28;20317;-46
2021/05/18 02:51:30;;;;;;;16.00;6.53;;;9.80;99.90;;;;;;5073687;28;20293;-50
2021/05/18 02:53:56;;;;;;;10.87;6.70;;;9.80;99.90;;;;;;5077828;28;20206;-50
2021/05/18 02:56:28;;;;;;;9.83;6.20;;;9.80;99.90;;;;;;5082409;28;20240;-49
2021/05/18 02:58:59;;;;;;;14.27;7.07;;;9.80;99.90;;;;;;5079035;28;20193;-50
2021/05/18 03:01:25;;;;;;;11.70;6.40;;;9.70;99.90;;;;;;5078919;28;20293;-49
2021/05/18 03:03:52;;;;;;;9.77;6.90;;;9.70;99.90;;;;;;5065640;28;20588;-51
2021/05/18 03:06:19;;;;;;;11.03;7.20;;;9.70;99.90;;;;;;5083276;28;20210;-49
2021/05/18 03:08:45;;;;;;;12.70;6.60;;;9.70;99.90;;;;;;5062443;28;20295;-49
2021/05/18 03:11:12;;;;;;;10.23;7.07;;;9.70;99.90;;;;;;5082645;28;20269;-48
2021/05/18 03:13:39;;;;;;;14.00;7.03;;;9.70;99.90;;;;;;5076088;28;20726;-53
2021/05/18 03:16:06;;;;;;;16.80;6.87;;;9.70;99.90;;;;;;5080391;28;20210;-49
2021/05/18 03:18:32;;;;;;;13.53;7.13;;;9.60;99.90;;;;;;5065920;28;20794;-51
2021/05/18 03:20:59;;;;;;;14.33;7.20;;;9.60;99.90;;;;;;5077099;28;20225;-47
2021/05/18 03:23:25;;;;;;;13.50;6.93;;;9.60;99.90;;;;;;5070265;28;20206;-47
2021/05/18 03:25:52;;;;;;;14.80;7.53;;;9.60;99.90;;;;;;5079054;28;20213;-54
2021/05/18 03:28:21;;;;;;;13.10;7.23;;;;;;;;;;5082675;28;20197;-49
2021/05/18 03:30:56;;;;;;;14.73;7.27;;;9.50;99.90;;;;;;5079246;28;20198;-48
2021/05/18 03:36:09;;;;;;;9.47;6.77;;;9.60;99.90;;;;;;5077507;28;20212;-49
2021/05/18 03:38:38;;;;;;;9.03;6.60;;;10.20;99.90;;;;;;5072385;28;20225;-49
2021/05/18 03:41:09;;;;;;;14.47;7.53;;;9.50;99.90;;;;;;5079541;28;20247;-49
2021/05/18 03:43:44;;;;;;;10.47;6.47;;;9.90;99.90;;;;;;5082914;28;20205;-48
2021/05/18 03:54:45;;;;;;;14.50;6.30;;;9.60;99.90;;;;;;5081076;28;20230;-47
2021/05/18 04:02:52;;;;;;;8.90;5.83;;;9.60;99.90;;;;;;5073677;28;20575;-49
2021/05/18 04:11:04;;;;;;;9.87;5.17;;;10.10;99.90;;;;;;5083140;28;20221;-49
2021/05/18 04:19:07;;;;;;;8.80;5.93;;;9.50;99.90;;;;;;5066893;28;20202;-51
2021/05/18 04:21:45;;;;;;;12.00;6.07;;;9.40;99.90;;;;;;5072164;28;20206;-50
2021/05/18 04:24:45;;;;;;;11.17;6.10;;;9.50;99.90;;;;;;5075093;28;20926;-47
2021/05/18 04:41:07;;;;;;;8.50;5.47;;;9.40;99.90;;;;;;5075937;28;20286;-50
2021/05/18 04:51:55;;;;;;;10.97;5.50;;;9.50;99.90;;;;;;5050794;28;20206;-54
2021/05/18 04:55:05;;;;;;;8.30;5.00;;;9.60;99.90;;;;;;5070462;28;20224;-50
2021/05/18 05:00:20;;;;;;;15.37;5.23;;;9.60;99.90;;;;;;5080834;28;20190;-48
2021/05/18 05:08:25;;;;;;;8.40;5.33;;;9.80;99.90;;;;;;5064517;28;20270;-51
2021/05/18 05:16:20;;;;;;;8.83;5.17;;;9.80;99.90;;;;;;5084384;28;20567;-48
2021/05/18 05:18:46;;;;;;;9.17;5.17;;;9.90;99.90;;;;;;5080406;28;20190;-48
2021/05/18 05:21:12;;;;;;;13.97;4.97;;;9.90;99.90;;;;;;5078038;28;20202;-48
2021/05/18 05:23:39;;;;;;;11.70;5.73;;;10.00;99.90;;;;;;5070004;28;20209;-51
2021/05/18 05:26:05;;;;;;;11.50;5.30;;;10.00;99.90;;;;;;5081919;28;20226;-48
2021/05/18 05:28:31;;;;;;;22.13;5.87;;;10.00;99.90;;;;;;5082763;28;20221;-50
2021/05/18 05:30:58;;;;;;;19.13;6.73;;;10.00;99.90;;;;;;5078381;28;20986;-46
2021/05/18 05:33:24;;;;;;;8.73;5.10;;;10.10;99.90;;;;;;5076114;28;20237;-48
2021/05/18 05:35:51;;;;;;;8.37;5.10;;;10.20;99.90;;;;;;5084878;28;20221;-48
2021/05/18 05:38:19;;;;;;;10.30;4.83;;;10.20;99.90;;;;;;5062192;28;20217;-46
2021/05/18 05:40:46;;;;;;;12.33;6.00;;;10.30;99.90;;;;;;5080566;27;20209;-51
2021/05/18 05:43:12;;;;;;;11.73;6.20;;;10.30;99.90;;;;;;5083627;28;20785;-45
2021/05/18 05:45:38;;;;;;;12.17;6.30;;;10.40;99.90;;;;;;5079405;28;20532;-47
2021/05/18 05:48:05;;;;;;;6.80;5.00;;;10.50;99.90;;;;;;5084734;28;20198;-49
2021/05/18 05:50:31;;;;;;;9.57;5.10;;;10.50;99.90;;;;;;5082124;28;20182;-47
2021/05/18 05:52:58;;;;;;;13.33;6.00;;;10.60;99.90;;;;;;5079582;28;20690;-45
2021/05/18 05:55:24;;;;;;;7.20;4.73;;;10.60;99.90;;;;;;5068657;28;20217;-47
2021/05/18 05:57:52;;;;;;;8.20;5.10;;;10.60;99.90;;;;;;5077571;28;20198;-47
2021/05/18 06:00:19;;;;;;;6.30;4.00;;;10.70;99.90;;;;;;5075982;28;20621;-45
2021/05/18 06:02:45;;;;;;;5.77;3.77;;;10.80;99.90;;;;;;5085072;28;20190;-49
2021/05/18 06:05:11;;;;;;;8.33;4.37;;;10.90;99.90;;;;;;5081411;28;20221;-49
2021/05/18 06:07:38;;;;;;;8.57;4.40;;;10.90;99.90;;;;;;5075923;28;20196;-46
2021/05/18 06:10:10;;;;;;;7.27;4.37;;;10.90;99.90;;;;;;5071513;28;20206;-44
2021/05/18 06:12:49;;;;;;;7.23;4.50;;;11.00;99.90;;;;;;5081656;28;20220;-48
2021/05/18 06:34:48;;;;;;;5.70;3.70;;;11.70;99.90;;;;;;5084148;28;20237;-52
2021/05/18 06:43:02;;;;;;;9.73;4.87;;;11.80;99.90;;;;;;5056969;28;20267;-52
2021/05/18 06:46:04;;;;;;;8.33;4.70;;;11.80;99.90;;;;;;5081472;28;20222;-48
2021/05/18 06:48:31;;;;;;;7.87;5.70;;;11.80;99.90;;;;;;5074142;28;20686;-49
2021/05/18 06:50:57;;;;;;;7.30;4.93;;;11.90;99.90;;;;;;5074998;28;20194;-52
2021/05/18 06:53:24;;;;;;;7.30;5.47;;;11.90;99.90;;;;;;5076989;28;20214;-48
2021/05/18 06:55:52;;;;;;;6.87;4.30;;;11.90;99.90;;;;;;5066197;28;20218;-52
2021/05/18 06:58:35;;;;;;;8.23;4.87;;;12.00;99.90;;;;;;5070615;28;20492;-50
2021/05/18 07:01:01;;;;;;;11.50;4.83;;;12.00;99.90;;;;;;5076529;28;20203;-48
2021/05/18 07:03:32;;;;;;;10.47;5.07;;;12.00;99.90;;;;;;5079912;28;20210;-52
2021/05/18 07:06:06;;;;;;;9.67;5.23;;;12.00;99.90;;;;;;5075273;28;20263;-47
2021/05/18 07:11:13;;;;;;;7.43;5.10;;;12.20;99.90;;;;;;5075213;28;20281;-52
2021/05/18 07:13:40;;;;;;;7.93;5.30;;;12.10;99.90;;;;;;5075024;28;20386;-52
2021/05/18 07:16:06;;;;;;;6.93;5.17;;;12.10;99.90;;;;;;5082586;28;20305;-50
2021/05/18 07:18:32;;;;;;;9.30;5.50;;;12.10;99.90;;;;;;5076357;28;20217;-52
2021/05/18 07:20:59;;;;;;;9.73;5.40;;;12.20;99.90;;;;;;5083296;28;20667;-49
2021/05/18 07:23:27;;;;;;;7.77;5.73;;;12.20;99.90;;;;;;5076857;28;20780;-50
2021/05/18 07:25:53;;;;;;;11.27;5.60;;;12.20;99.90;;;;;;5084162;28;20210;-49
2021/05/18 07:28:20;;;;;;;10.93;5.50;;;12.30;99.90;;;;;;5064275;28;20206;-47
2021/05/18 07:30:48;;;;;;;7.30;5.73;;;12.30;99.90;;;;;;5081809;28;20197;-51
2021/05/18 07:33:14;;;;;;;9.03;5.90;;;12.30;99.90;;;;;;5076930;28;20605;-48
2021/05/18 07:35:42;;;;;;;8.83;6.40;;;12.30;99.90;;;;;;5068442;28;20832;-49
2021/05/18 07:38:09;;;;;;;9.30;5.80;;;12.30;99.90;;;;;;5079899;28;20200;-47
2021/05/18 07:40:36;;;;;;;7.13;5.90;;;12.20;99.90;;;;;;5075823;28;20267;-46
2021/05/18 07:43:05;;;;;;;9.13;5.70;;;12.30;99.90;;;;;;5066621;28;20229;-52
2021/05/18 07:45:32;;;;;;;11.67;6.63;;;12.30;99.90;;;;;;5075440;28;20943;-48
2021/05/18 07:48:11;;;;;;;7.23;5.30;;;12.20;99.90;;;;;;5082181;28;20218;-50
2021/05/18 07:50:46;;;;;;;8.90;5.17;;;12.30;99.90;;;;;;5070464;28;20217;-50
2021/05/18 08:06:55;;;;;;;7.57;4.33;;;12.90;99.90;;;;;;5076528;28;20201;-52
2021/05/18 08:09:23;;;;;;;6.50;4.63;;;13.10;99.90;;;;;;5074848;28;20186;-49
2021/05/18 08:11:49;;;;;;;5.63;3.40;;;13.20;99.90;;;;;;5078931;28;20194;-50
2021/05/18 08:14:17;;;;;;;5.30;3.73;;;13.20;99.90;;;;;;5067300;28;20267;-51
2021/05/18 08:17:01;;;;;;;5.03;4.43;;;13.20;99.90;;;;;;5077276;28;20210;-51
2021/05/18 08:48:02;;;;;;;5.70;4.07;;;13.30;99.90;;;;;;5081434;28;20201;-47
2021/05/18 09:01:50;;;;;;;4.77;3.00;;;13.00;99.90;;;;;;5078843;28;20587;-49
2021/05/18 10:14:22;;;;;;;4.43;3.80;;;13.00;99.90;;;;;;5078186;28;20198;-51
2021/05/18 10:24:34;;;;;;;5.57;4.90;;;13.40;99.90;;;;;;5081359;28;20333;-43
2021/05/18 10:27:10;;;;;;;7.00;4.67;;;13.40;99.90;;;;;;5072586;28;20222;-45
2021/05/18 10:34:57;;;;;;;5.50;4.43;;;13.50;99.90;;;;;;5080571;28;20583;-49
2021/05/18 10:37:36;;;;;;;3.90;3.57;;;13.60;99.90;;;;;;5064851;28;20213;-49
2021/05/18 10:40:32;;;;;;;5.03;4.60;;;13.60;99.90;;;;;;5094417;27;20190;-50
2021/05/18 10:43:10;;;;;;;4.40;4.00;;;13.60;99.90;;;;;;5074699;28;20743;-46
2021/05/18 10:46:09;;;;;;;5.13;4.53;;;13.30;99.90;;;;;;5072949;28;20236;-50
2021/05/18 10:48:59;;;;;;;4.83;4.43;;;13.30;99.90;;;;;;5064814;28;20218;-47
2021/05/18 10:51:39;;;;;;;5.23;4.80;;;13.30;99.90;;;;;;5070810;28;20221;-46
2021/05/18 10:54:18;;;;;;;5.13;4.50;;;13.30;99.90;;;;;;5076579;28;20209;-47
2021/05/18 10:57:05;;;;;;;6.13;4.80;;;13.40;99.90;;;;;;5071789;28;20193;-47
2021/05/18 10:59:33;;;;;;;5.77;4.70;;;13.50;99.90;;;;;;5074411;28;20206;-53
2021/05/18 11:02:01;;;;;;;5.43;4.00;;;13.50;99.90;;;;;;5069620;28;20206;-48
2021/05/18 11:04:29;;;;;;;6.13;4.40;;;13.50;99.90;;;;;;5082159;28;20274;-48
2021/05/18 11:06:56;;;;;;;5.17;4.67;;;13.50;99.90;;;;;;5074356;28;20235;-46
2021/05/18 11:09:26;;;;;;;6.53;4.80;;;13.40;99.90;;;;;;5082147;28;20205;-52
2021/05/18 11:11:58;;;;;;;4.87;4.37;;;13.30;99.90;;;;;;5074917;28;20218;-53
2021/05/18 11:14:33;;;;;;;5.20;4.70;;;13.20;99.90;;;;;;5071257;28;20229;-50
2021/05/18 11:17:10;;;;;;;5.77;4.67;;;13.00;99.90;;;;;;5073424;28;20202;-45
2021/05/18 11:19:52;;;;;;;5.13;3.90;;;13.00;99.90;;;;;;5067670;28;20556;-47
2021/05/18 11:23:18;;;;;;;4.23;3.70;;;13.00;99.90;;;;;;5071410;28;20201;-49
2021/05/18 11:25:06;;;;;;;4.27;3.87;;;12.90;99.90;;;;;;5080065;28;20253;-46
2021/05/18 11:27:32;;;;;;;3.70;3.40;;;12.90;99.90;;;;;;5074762;28;20201;-50
2021/05/18 11:29:59;;;;;;;3.50;3.20;;;12.80;99.90;;;;;;5073675;28;20368;-46
2021/05/18 11:32:25;;;;;;;3.83;3.53;;;12.70;99.90;;;;;;5074097;28;20202;-45
2021/05/18 11:34:55;;;;;;;4.07;3.30;;;12.70;99.90;;;;;;5068703;28;20233;-45
2021/05/18 11:37:21;;;;;;;4.03;3.73;;;12.70;99.90;;;;;;5076381;28;20284;-47
2021/05/18 11:39:47;;;;;;;5.93;4.53;;;12.70;99.90;;;;;;5077845;28;20186;-48
2021/05/18 11:42:27;;;;;;;3.53;3.23;;;12.60;99.90;;;;;;5081868;28;20593;-46
2021/05/18 11:45:05;;;;;;;3.87;3.40;;;12.70;99.90;;;;;;5071196;28;20233;-46
2021/05/18 11:47:32;;;;;;;3.47;3.17;;;12.70;99.90;;;;;;5080640;28;20199;-51
2021/05/18 11:49:58;;;;;;;2.73;2.53;;;12.70;99.90;;;;;;5070166;28;20217;-46
2021/05/18 11:52:24;;;;;;;2.77;2.50;;;12.70;99.90;;;;;;5080754;28;20201;-50
2021/05/18 11:54:50;;;;;;;2.50;2.23;;;12.80;99.90;;;;;;5074595;28;20963;-45
2021/05/18 11:57:16;;;;;;;3.30;2.10;;;12.80;99.90;;;;;;5082928;28;20209;-47
2021/05/18 11:59:42;;;;;;;3.10;2.30;;;12.90;99.90;;;;;;5064067;28;20198;-47
2021/05/18 12:02:09;;;;;;;2.40;2.27;;;12.90;99.90;;;;;;5081156;28;20194;-49
2021/05/18 12:04:37;;;;;;;3.50;2.53;;;13.00;99.90;;;;;;5075470;28;20594;-47
2021/05/18 12:07:05;;;;;;;1.70;1.60;;;12.90;99.90;;;;;;5061956;28;20952;-46
2021/05/18 12:09:33;;;;;;;1.87;1.60;;;12.80;99.90;;;;;;5069698;28;20206;-48
2021/05/18 12:12:00;;;;;;;3.37;1.70;;;12.70;99.90;;;;;;5072399;28;20198;-46
2021/05/18 12:14:28;;;;;;;2.00;1.60;;;12.70;99.90;;;;;;5077729;28;20218;-45
2021/05/18 12:16:55;;;;;;;1.07;1.07;;;12.80;99.90;;;;;;5074863;28;20204;-48
2021/05/18 12:19:23;;;;;;;1.70;1.60;;;12.90;99.90;;;;;;5074772;28;20194;-44
2021/05/18 12:21:52;;;;;;;3.37;1.53;;;13.00;99.90;;;;;;5066158;28;20214;-46
2021/05/18 12:24:19;;;;;;;1.70;1.60;;;13.20;99.90;;;;;;5077859;28;20201;-48
2021/05/18 12:26:51;;;;;;;1.90;1.80;;;13.40;99.90;;;;;;5079873;28;20675;-45
2021/05/18 12:29:36;;;;;;;1.70;1.60;;;13.60;99.90;;;;;;5078452;28;20198;-47
2021/05/18 12:32:16;;;;;;;2.10;1.90;;;13.80;99.90;;;;;;5077769;28;20283;-50
2021/05/18 12:34:43;;;;;;;2.83;1.60;;;14.00;99.90;;;;;;5069581;28;20259;-46
2021/05/18 12:37:10;;;;;;;1.93;1.60;;;14.30;99.90;;;;;;5068593;28;20213;-46
2021/05/18 12:39:41;;;;;;;1.70;1.60;;;14.60;99.90;;;;;;5077040;28;20251;-50
2021/05/18 12:42:11;;;;;;;2.57;1.50;;;14.80;99.90;;;;;;5077669;28;20307;-49
2021/05/18 12:44:50;;;;;;;1.60;1.50;;;15.10;99.90;;;;;;5077398;28;20294;-50
2021/05/18 12:47:25;;;;;;;1.83;1.63;;;15.20;99.90;;;;;;5077086;28;20205;-44
2021/05/18 12:49:52;;;;;;;3.60;2.43;;;15.30;99.90;;;;;;5077370;28;20243;-44
2021/05/18 12:52:18;;;;;;;1.60;1.50;;;15.40;99.90;;;;;;5082072;28;20197;-46
2021/05/18 12:54:51;;;;;;;1.27;1.20;;;15.40;99.90;;;;;;5051269;28;20234;-46
2021/05/18 12:57:19;;;;;;;1.53;1.30;;;15.40;99.90;;;;;;5080510;28;20922;-47
2021/05/18 13:00:12;;;;;;;1.50;1.40;;;15.50;99.90;;;;;;5074743;28;20346;-45
2021/05/18 13:02:41;;;;;;;1.67;1.20;;;15.60;99.90;;;;;;5072286;28;20663;-47
2021/05/18 13:05:16;;;;;;;1.67;1.10;;;15.50;99.90;;;;;;5079437;28;20217;-47
2021/05/18 13:07:43;;;;;;;2.50;1.30;;;15.70;99.90;;;;;;5073763;28;20326;-45
2021/05/18 13:10:16;;;;;;;1.60;0.93;;;16.30;99.90;;;;;;5065093;28;20217;-47
2021/05/18 13:12:42;;;;;;;0.80;0.80;;;16.80;99.90;;;;;;5078519;28;20201;-44
2021/05/18 13:15:10;;;;;;;1.03;1.03;;;17.30;99.90;;;;;;5078335;28;20838;-45
2021/05/18 13:17:36;;;;;;;1.97;0.93;;;17.70;99.90;;;;;;5075194;28;20273;-47
2021/05/18 13:20:06;;;;;;;0.80;0.77;;;17.70;98.70;;;;;;5082219;28;20240;-48
2021/05/18 13:22:34;;;;;;;0.93;0.60;;;17.70;96.60;;;;;;5083938;28;20186;-48
2021/05/18 13:28:03;;;;;;;1.70;0.70;;;17.40;94.00;;;;;;5079156;28;20207;-50
2021/05/18 13:30:30;;;;;;;0.73;0.50;;;17.00;93.00;;;;;;5079764;28;20206;-44
2021/05/18 13:32:56;;;;;;;1.07;0.70;;;16.70;95.80;;;;;;5070941;28;20209;-49
2021/05/18 13:35:28;;;;;;;0.70;0.70;;;16.50;96.40;;;;;;5085182;28;20701;-48
2021/05/18 13:37:56;;;;;;;0.70;0.50;;;16.30;98.60;;;;;;5072642;28;20205;-46
2021/05/18 13:40:24;;;;;;;1.17;0.60;;;16.30;97.40;;;;;;5072785;28;20194;-47
2021/05/18 13:42:51;;;;;;;0.60;0.60;;;16.20;97.30;;;;;;5076820;28;20299;-48
2021/05/18 13:45:19;;;;;;;0.90;0.90;;;16.30;97.70;;;;;;5077804;28;20582;-44
2021/05/18 13:47:45;;;;;;;0.93;0.80;;;16.70;96.70;;;;;;5080711;28;20664;-45
2021/05/18 13:50:12;;;;;;;3.10;1.03;;;17.20;96.40;;;;;;5080891;28;20933;-46
2021/05/18 13:52:38;;;;;;;1.00;0.87;;;17.70;95.50;;;;;;5084318;28;20206;-48
2021/05/18 13:55:07;;;;;;;1.63;0.80;;;17.80;94.30;;;;;;5079745;28;20225;-44
2021/05/18 13:57:33;;;;;;;1.47;1.30;;;18.20;93.00;;;;;;5060224;28;20210;-49
2021/05/18 14:00:00;;;;;;;1.03;0.93;;;17.80;93.10;;;;;;5077661;28;20205;-45
2021/05/18 14:02:26;;;;;;;1.33;0.90;;;17.20;94.20;;;;;;5072670;28;20212;-47
2021/05/18 14:04:52;;;;;;;1.10;1.00;;;16.70;95.10;;;;;;5081424;28;20222;-46
2021/05/18 14:07:39;;;;;;;1.23;0.87;;;16.40;95.80;;;;;;5081413;28;20206;-48
2021/05/18 14:10:11;;;;;;;1.23;1.03;;;16.20;96.50;;;;;;5085712;28;20651;-46
2021/05/18 14:12:38;;;;;;;2.50;0.97;;;16.10;96.80;;;;;;5064815;28;20210;-42
2021/05/18 14:15:05;;;;;;;1.50;1.20;;;15.90;97.60;;;;;;5079642;28;20222;-48
2021/05/18 14:17:31;;;;;;;1.27;1.17;;;15.70;98.20;;;;;;5075624;28;20448;-47
2021/05/18 14:19:57;;;;;;;7.47;4.47;;;15.60;99.70;;;;;;5078074;28;20225;-46
2021/05/18 14:22:23;;;;;;;1.13;1.07;;;15.60;99.90;;;;;;5075501;28;20509;-46
2021/05/18 14:24:55;;;;;;;1.57;1.47;;;15.70;99.90;;;;;;5084433;28;20218;-49
2021/05/18 14:27:22;;;;;;;1.63;1.53;;;15.70;99.90;;;;;;5064752;28;20206;-50
2021/05/18 14:29:48;;;;;;;2.93;1.70;;;15.70;99.90;;;;;;5082249;28;20216;-48
2021/05/18 14:32:15;;;;;;;1.60;1.50;;;15.80;99.90;;;;;;5078944;28;20210;-46
2021/05/18 14:34:41;;;;;;;1.10;1.10;;;15.70;99.90;;;;;;5082120;28;20552;-44
2021/05/18 14:37:08;;;;;;;1.63;1.17;;;15.70;99.90;;;;;;5089135;28;20188;-49
2021/05/18 14:39:49;;;;;;;1.60;1.30;;;15.70;99.90;;;;;;5078562;28;20687;-47
2021/05/18 14:45:04;;;;;;;1.23;0.90;;;16.00;98.70;;;;;;5073882;28;20611;-45
2021/05/18 14:47:33;;;;;;;0.83;0.70;;;17.00;96.90;;;;;;5074255;28;20187;-45
2021/05/18 14:55:25;;;;;;;0.70;0.70;;;18.70;85.30;;;;;;5075910;28;20249;-49
2021/05/18 14:57:52;;;;;;;1.33;1.23;;;19.20;85.70;;;;;;5069309;28;20256;-48
2021/05/18 15:00:20;;;;;;;0.70;0.70;;;19.60;99.90;;;;;;5077054;28;20251;-49
2021/05/18 15:02:47;;;;;;;0.83;0.80;;;20.00;79.30;;;;;;5073845;28;20194;-48
2021/05/18 15:05:14;;;;;;;0.80;0.80;;;20.40;79.30;;;;;;5062466;28;20214;-47
2021/05/18 15:07:41;;;;;;;1.87;0.80;;;20.50;76.40;;;;;;5081083;28;20251;-47
2021/05/18 15:10:09;;;;;;;2.27;1.10;;;20.60;74.80;;;;;;5065596;28;20213;-46
2021/05/18 15:12:35;;;;;;;1.00;0.80;;;20.90;73.10;;;;;;5077272;28;20220;-46
2021/05/18 15:15:01;;;;;;;1.33;1.23;;;19.80;73.20;;;;;;5068178;28;20222;-49
2021/05/18 15:17:28;;;;;;;1.33;1.23;;;19.40;75.00;;;;;;5082528;28;20201;-46
2021/05/18 15:19:54;;;;;;;1.17;1.07;;;18.60;78.20;;;;;;5074498;28;20186;-48
2021/05/18 15:22:20;;;;;;;1.10;1.10;;;18.20;82.40;;;;;;5077824;28;20206;-48
2021/05/18 15:24:47;;;;;;;2.57;1.20;;;17.80;87.10;;;;;;5070177;28;20560;-45
2021/05/18 15:27:13;;;;;;;1.37;1.23;;;17.50;89.50;;;;;;5083135;28;20271;-47
2021/05/18 15:29:39;;;;;;;2.30;1.30;;;17.20;90.80;;;;;;5060056;28;20308;-43
2021/05/18 15:32:06;;;;;;;2.73;1.80;;;17.20;91.80;;;;;;5079473;28;20922;-48
2021/05/18 15:34:33;;;;;;;1.50;1.40;;;16.90;94.00;;;;;;5077952;28;20218;-50
2021/05/18 15:36:59;;;;;;;2.37;1.50;;;16.70;96.10;;;;;;5075101;28;20206;-48
2021/05/18 15:39:26;;;;;;;1.53;1.43;;;16.60;96.70;;;;;;5077834;28;20685;-47
2021/05/18 15:41:52;;;;;;;2.13;2.03;;;16.70;97.20;;;;;;5073950;28;20287;-47
2021/05/18 15:44:18;;;;;;;2.10;1.90;;;16.50;96.60;;;;;;5070526;28;20581;-45
2021/05/18 15:46:45;;;;;;;1.87;1.67;;;16.50;97.30;;;;;;5079708;28;20202;-48
2021/05/18 15:49:11;;;;;;;5.13;2.00;;;16.80;96.90;;;;;;5079594;28;20641;-47
2021/05/18 15:51:38;;;;;;;1.80;1.70;;;17.50;96.30;;;;;;5084552;28;20243;-51
2021/05/18 15:54:05;;;;;;;2.83;2.20;;;17.90;94.20;;;;;;5079550;28;20186;-50
2021/05/18 15:56:33;;;;;;;3.50;2.17;;;17.40;94.50;;;;;;5073876;28;20209;-50
2021/05/18 15:58:59;;;;;;;1.30;1.30;;;17.10;96.00;;;;;;5080651;28;20991;-46
2021/05/18 16:01:25;;;;;;;2.40;1.70;;;16.80;96.20;;;;;;5061190;28;20210;-44
2021/05/18 16:03:51;;;;;;;1.57;1.47;;;16.50;95.70;;;;;;5069720;28;20191;-49
2021/05/18 16:06:17;;;;;;;1.10;1.10;;;16.30;95.50;;;;;;5079132;28;20617;-47
2021/05/18 16:09:00;;;;;;;1.57;1.47;;;16.00;95.80;;;;;;5074830;28;20207;-45
2021/05/18 16:11:26;;;;;;;2.60;1.60;;;15.80;96.80;;;;;;5078617;28;20268;-52
2021/05/18 16:13:52;;;;;;;1.40;1.30;;;15.60;97.80;;;;;;5076617;28;20243;-49
2021/05/18 16:16:18;;;;;;;1.47;1.37;;;15.50;98.80;;;;;;5057362;28;20214;-51
2021/05/18 16:18:45;;;;;;;1.23;1.20;;;15.40;98.30;;;;;;5074225;28;20190;-52
2021/05/18 16:21:13;;;;;;;1.40;1.30;;;15.30;98.40;;;;;;5077755;28;20198;-45
2021/05/18 16:23:40;;;;;;;3.13;1.60;;;15.10;98.30;;;;;;5077864;28;20194;-46
2021/05/18 16:26:08;;;;;;;3.70;1.73;;;15.10;99.30;;;;;;5074863;28;20336;-46
2021/05/18 16:28:35;;;;;;;1.20;1.20;;;15.10;99.50;;;;;;5081297;28;20193;-45
2021/05/18 16:31:02;;;;;;;2.80;1.20;;;15.00;99.30;;;;;;5067630;28;20438;-45
2021/05/18 16:33:29;;;;;;;1.73;1.63;;;15.00;99.30;;;;;;5070313;28;20186;-45
2021/05/18 16:35:55;;;;;;;1.30;1.20;;;15.00;99.50;;;;;;5080689;28;20213;-46
2021/05/18 16:38:22;;;;;;;1.87;1.50;;;15.00;99.20;;;;;;5075971;28;20198;-48
2021/05/18 16:40:51;;;;;;;1.63;1.40;;;15.00;99.80;;;;;;5076681;28;20202;-46
2021/05/18 16:43:19;;;;;;;1.67;1.53;;;15.00;99.90;;;;;;5074588;28;20288;-44
2021/05/18 16:45:46;;;;;;;1.40;1.30;;;15.10;99.90;;;;;;5077476;28;20802;-46
2021/05/18 16:48:12;;;;;;;2.07;1.37;;;15.10;99.90;;;;;;5065827;28;20739;-48
2021/05/18 16:50:38;;;;;;;1.57;1.47;;;15.10;99.90;;;;;;5079663;28;20194;-47
2021/05/18 16:53:04;;;;;;;1.50;1.40;;;15.10;99.90;;;;;;5076228;28;20202;-46
2021/05/18 16:55:30;;;;;;;1.93;1.20;;;15.10;99.90;;;;;;5077186;28;20230;-46
2021/05/18 16:57:56;;;;;;;1.40;1.30;;;15.10;99.90;;;;;;5077659;28;20206;-47
2021/05/18 17:00:24;;;;;;;1.17;1.07;;;15.10;99.90;;;;;;5077673;28;20247;-47
2021/05/18 17:02:51;;;;;;;1.10;1.00;;;15.10;99.20;;;;;;5066595;28;20338;-50
2021/05/18 17:05:17;;;;;;;2.13;1.40;;;15.00;98.60;;;;;;5085443;28;20267;-48
2021/05/18 17:07:43;;;;;;;1.70;1.40;;;15.00;98.70;;;;;;5077672;28;20210;-49
2021/05/18 17:10:10;;;;;;;2.00;1.20;;;15.00;99.50;;;;;;5079180;28;20198;-45